createdAt,value
2022-09-09T00:00:03.203Z,0.00
2022-09-09T00:01:03.063Z,0.00
2022-09-09T00:02:02.058Z,0.00
2022-09-09T00:03:01.965Z,0.00
2022-09-09T00:04:02.547Z,0.00
2022-09-09T00:05:02.006Z,0.00
2022-09-09T00:06:01.983Z,0.00
2022-09-09T00:07:03.138Z,0.00
2022-09-09T00:08:03.127Z,0.00
2022-09-09T00:09:02.561Z,0.00
2022-09-09T00:10:02.943Z,0.00
2022-09-09T00:11:03.062Z,0.00
2022-09-09T00:12:03.443Z,0.00
2022-09-09T00:13:02.889Z,0.00
2022-09-09T00:14:03.197Z,0.00
2022-09-09T00:15:02.920Z,0.00
2022-09-09T00:16:03.403Z,0.00
2022-09-09T00:17:02.208Z,0.00
2022-09-09T00:18:02.621Z,0.00
2022-09-09T00:19:02.330Z,0.00
2022-09-09T00:20:02.795Z,0.00
2022-09-09T00:21:02.237Z,0.00
2022-09-09T00:22:02.659Z,0.00
2022-09-09T00:23:03.096Z,0.00
2022-09-09T00:24:02.779Z,0.00
2022-09-09T00:25:03.162Z,0.00
2022-09-09T00:26:03.119Z,0.00
2022-09-09T00:27:03.329Z,0.00
2022-09-09T00:28:03.069Z,0.00
2022-09-09T00:29:03.479Z,0.00
2022-09-09T00:30:03.013Z,0.00
2022-09-09T00:31:03.472Z,0.00
2022-09-09T00:32:03.016Z,0.00
2022-09-09T00:33:03.091Z,0.00
2022-09-09T00:34:03.557Z,0.00
2022-09-09T00:35:03.044Z,0.00
2022-09-09T00:36:03.494Z,0.00
2022-09-09T00:37:02.196Z,0.00
2022-09-09T00:38:02.628Z,0.00
2022-09-09T00:39:02.347Z,0.00
2022-09-09T00:40:02.839Z,0.00
2022-09-09T00:41:02.544Z,0.00
2022-09-09T00:42:02.956Z,0.00
2022-09-09T00:43:03.344Z,0.00
2022-09-09T00:44:03.100Z,0.00
2022-09-09T00:45:03.131Z,0.00
2022-09-09T00:46:03.608Z,0.00
2022-09-09T00:47:03.130Z,0.00
2022-09-09T00:48:03.186Z,0.00
2022-09-09T00:49:03.155Z,0.00
2022-09-09T00:50:03.490Z,0.00
2022-09-09T00:51:03.707Z,0.00
2022-09-09T00:52:02.232Z,0.00
2022-09-09T00:53:02.275Z,0.00
2022-09-09T00:54:02.705Z,0.00
2022-09-09T00:55:02.533Z,0.00
2022-09-09T00:56:02.263Z,0.00
2022-09-09T00:57:02.970Z,0.00
2022-09-09T00:58:02.897Z,0.00
2022-09-09T00:59:02.621Z,0.00
2022-09-09T01:00:02.803Z,0.00
2022-09-09T01:01:03.002Z,0.00
2022-09-09T01:02:01.879Z,0.00
2022-09-09T01:03:01.681Z,0.00
2022-09-09T01:04:02.115Z,0.00
2022-09-09T01:05:01.795Z,0.00
2022-09-09T01:06:02.189Z,0.00
2022-09-09T01:07:01.911Z,0.00
2022-09-09T01:08:02.315Z,0.00
2022-09-09T01:09:02.021Z,0.00
2022-09-09T01:10:02.418Z,0.00
2022-09-09T01:11:01.853Z,0.00
2022-09-09T01:12:02.236Z,0.00
2022-09-09T01:13:02.502Z,0.00
2022-09-09T01:14:02.238Z,0.00
2022-09-09T01:15:02.383Z,0.00
2022-09-09T01:16:02.733Z,0.00
2022-09-09T01:17:02.010Z,0.00
2022-09-09T01:18:01.713Z,0.00
2022-09-09T01:19:02.396Z,0.00
2022-09-09T01:20:01.855Z,0.00
2022-09-09T01:21:01.720Z,0.00
2022-09-09T01:22:02.161Z,0.00
2022-09-09T01:23:02.559Z,0.00
2022-09-09T01:24:02.187Z,0.00
2022-09-09T01:25:01.942Z,0.00
2022-09-09T01:26:02.366Z,0.00
2022-09-09T01:27:02.772Z,0.00
2022-09-09T01:28:03.072Z,0.00
2022-09-09T01:29:02.817Z,0.00
2022-09-09T01:30:02.594Z,0.00
2022-09-09T01:31:03.021Z,0.00
2022-09-09T01:32:02.523Z,0.00
2022-09-09T01:33:02.654Z,0.00
2022-09-09T01:34:02.699Z,0.00
2022-09-09T01:35:02.418Z,0.00
2022-09-09T01:36:02.284Z,0.00
2022-09-09T01:37:02.695Z,0.00
2022-09-09T01:38:02.947Z,0.00
2022-09-09T01:39:02.674Z,0.00
2022-09-09T01:40:03.130Z,0.00
2022-09-09T01:41:02.619Z,0.00
2022-09-09T01:42:02.178Z,0.00
2022-09-09T01:43:01.885Z,0.00
2022-09-09T01:44:02.285Z,0.00
2022-09-09T01:45:02.184Z,0.00
2022-09-09T01:46:02.011Z,0.00
2022-09-09T01:47:02.494Z,0.00
2022-09-09T01:48:02.219Z,0.00
2022-09-09T01:49:02.610Z,0.00
2022-09-09T01:50:02.336Z,0.00
2022-09-09T01:51:02.269Z,0.00
2022-09-09T01:52:02.808Z,0.00
2022-09-09T01:53:02.494Z,0.00
2022-09-09T01:54:02.927Z,0.00
2022-09-09T01:55:02.650Z,0.00
2022-09-09T01:56:02.387Z,0.00
2022-09-09T01:57:03.118Z,0.00
2022-09-09T01:58:02.483Z,0.00
2022-09-09T01:59:03.098Z,0.00
2022-09-09T02:00:02.631Z,0.00
2022-09-09T02:01:03.201Z,0.00
2022-09-09T02:02:03.373Z,0.00
2022-09-09T02:03:03.243Z,0.00
2022-09-09T02:04:03.713Z,0.00
2022-09-09T02:05:03.541Z,0.00
2022-09-09T02:06:03.643Z,0.00
2022-09-09T02:07:03.248Z,0.00
2022-09-09T02:08:02.959Z,0.00
2022-09-09T02:09:03.348Z,0.00
2022-09-09T02:10:02.845Z,0.00
2022-09-09T02:11:02.782Z,0.00
2022-09-09T02:12:03.185Z,0.00
2022-09-09T02:13:02.913Z,0.00
2022-09-09T02:14:03.389Z,0.00
2022-09-09T02:15:03.417Z,0.00
2022-09-09T02:16:02.937Z,0.00
2022-09-09T02:17:03.388Z,0.00
2022-09-09T02:18:02.965Z,0.00
2022-09-09T02:19:03.349Z,0.00
2022-09-09T02:20:03.073Z,0.00
2022-09-09T02:21:03.565Z,0.00
2022-09-09T02:22:03.701Z,0.00
2022-09-09T02:23:03.536Z,0.00
2022-09-09T02:24:03.725Z,0.00
2022-09-09T02:25:03.505Z,0.00
2022-09-09T02:26:03.309Z,0.00
2022-09-09T02:27:03.068Z,0.00
2022-09-09T02:28:03.532Z,0.00
2022-09-09T02:29:03.325Z,0.00
2022-09-09T02:30:03.643Z,0.00
2022-09-09T02:31:03.593Z,0.00
2022-09-09T02:32:03.578Z,0.00
2022-09-09T02:33:03.715Z,0.00
2022-09-09T02:34:03.932Z,0.00
2022-09-09T02:35:03.440Z,0.00
2022-09-09T02:36:03.568Z,0.00
2022-09-09T02:37:03.126Z,0.00
2022-09-09T02:38:02.963Z,0.00
2022-09-09T02:39:03.090Z,0.00
2022-09-09T02:40:03.030Z,0.00
2022-09-09T02:41:02.783Z,0.00
2022-09-09T02:42:02.827Z,0.00
2022-09-09T02:43:02.734Z,0.00
2022-09-09T02:44:02.780Z,0.00
2022-09-09T02:45:03.063Z,0.00
2022-09-09T02:46:02.788Z,0.00
2022-09-09T02:47:03.739Z,0.00
2022-09-09T02:48:03.426Z,0.00
2022-09-09T02:49:03.682Z,0.00
2022-09-09T02:50:03.146Z,0.00
2022-09-09T02:51:03.599Z,0.00
2022-09-09T02:52:04.147Z,0.00
2022-09-09T02:53:03.624Z,0.00
2022-09-09T02:54:04.071Z,0.00
2022-09-09T02:55:03.857Z,0.00
2022-09-09T02:56:03.569Z,0.00
2022-09-09T02:57:03.798Z,0.00
2022-09-09T02:58:03.796Z,0.00
2022-09-09T02:59:03.394Z,0.00
2022-09-09T03:00:03.155Z,0.00
2022-09-09T03:01:03.567Z,0.00
2022-09-09T03:02:03.070Z,0.00
2022-09-09T03:03:02.657Z,0.00
2022-09-09T03:04:02.547Z,0.00
2022-09-09T03:05:03.049Z,0.00
2022-09-09T03:06:02.512Z,0.00
2022-09-09T03:07:01.968Z,0.00
2022-09-09T03:08:02.408Z,0.00
2022-09-09T03:09:02.123Z,0.00
2022-09-09T03:10:02.355Z,0.00
2022-09-09T03:11:02.100Z,0.00
2022-09-09T03:12:02.523Z,0.00
2022-09-09T03:13:02.783Z,0.00
2022-09-09T03:14:02.607Z,0.00
2022-09-09T03:15:02.999Z,0.00
2022-09-09T03:16:03.178Z,0.00
2022-09-09T03:17:02.777Z,0.00
2022-09-09T03:18:03.101Z,0.00
2022-09-09T03:19:02.998Z,0.00
2022-09-09T03:20:03.012Z,0.00
2022-09-09T03:21:02.946Z,0.00
2022-09-09T03:22:02.694Z,0.00
2022-09-09T03:23:02.528Z,0.00
2022-09-09T03:24:02.930Z,0.00
2022-09-09T03:25:03.067Z,0.00
2022-09-09T03:26:02.575Z,0.00
2022-09-09T03:27:02.973Z,0.00
2022-09-09T03:28:03.205Z,0.00
2022-09-09T03:29:03.018Z,0.00
2022-09-09T03:30:03.391Z,0.00
2022-09-09T03:31:03.041Z,0.00
2022-09-09T03:32:02.575Z,0.00
2022-09-09T03:33:02.619Z,0.00
2022-09-09T03:34:02.863Z,0.00
2022-09-09T03:35:02.656Z,0.00
2022-09-09T03:36:02.532Z,0.00
2022-09-09T03:37:03.405Z,0.00
2022-09-09T03:38:03.432Z,0.00
2022-09-09T03:39:03.166Z,0.00
2022-09-09T03:40:03.004Z,0.00
2022-09-09T03:41:03.100Z,0.00
2022-09-09T03:42:03.010Z,0.00
2022-09-09T03:43:03.434Z,0.00
2022-09-09T03:44:03.164Z,0.00
2022-09-09T03:45:02.868Z,0.00
2022-09-09T03:46:03.314Z,0.00
2022-09-09T03:47:03.257Z,0.00
2022-09-09T03:48:02.826Z,0.00
2022-09-09T03:49:03.252Z,0.00
2022-09-09T03:50:02.620Z,0.00
2022-09-09T03:51:03.069Z,0.00
2022-09-09T03:52:02.519Z,0.00
2022-09-09T03:53:02.833Z,0.00
2022-09-09T03:54:02.599Z,0.00
2022-09-09T03:55:02.304Z,0.00
2022-09-09T03:56:02.695Z,0.00
2022-09-09T03:57:02.648Z,0.00
2022-09-09T03:58:03.018Z,0.00
2022-09-09T03:59:02.372Z,0.00
2022-09-09T04:00:02.827Z,0.00
2022-09-09T04:01:02.741Z,0.00
2022-09-09T04:02:02.211Z,0.00
2022-09-09T04:03:01.909Z,0.00
2022-09-09T04:04:02.393Z,0.00
2022-09-09T04:05:02.186Z,0.00
2022-09-09T04:06:01.945Z,0.00
2022-09-09T04:07:02.610Z,0.00
2022-09-09T04:08:02.364Z,0.00
2022-09-09T04:09:02.183Z,0.00
2022-09-09T04:10:02.258Z,0.00
2022-09-09T04:11:02.174Z,0.00
2022-09-09T04:12:02.854Z,0.00
2022-09-09T04:13:02.600Z,0.00
2022-09-09T04:14:02.653Z,0.00
2022-09-09T04:15:02.537Z,0.00
2022-09-09T04:16:02.663Z,0.00
2022-09-09T04:17:02.009Z,0.00
2022-09-09T04:18:01.745Z,0.00
2022-09-09T04:19:02.056Z,0.00
2022-09-09T04:20:01.951Z,0.00
2022-09-09T04:21:01.877Z,0.00
2022-09-09T04:22:02.094Z,0.00
2022-09-09T04:23:02.772Z,0.00
2022-09-09T04:24:02.130Z,0.00
2022-09-09T04:25:02.582Z,0.00
2022-09-09T04:26:02.328Z,0.00
2022-09-09T04:27:02.498Z,0.00
2022-09-09T04:28:03.015Z,0.00
2022-09-09T04:29:02.499Z,4.00
2022-09-09T04:30:02.904Z,4.00
2022-09-09T04:31:03.105Z,4.00
2022-09-09T04:32:02.481Z,0.00
2022-09-09T04:33:01.961Z,0.00
2022-09-09T04:34:01.936Z,0.00
2022-09-09T04:35:02.482Z,4.00
2022-09-09T04:36:02.198Z,0.00
2022-09-09T04:37:02.713Z,4.00
2022-09-09T04:38:02.247Z,4.00
2022-09-09T04:39:02.713Z,8.00
2022-09-09T04:40:02.635Z,8.00
2022-09-09T04:41:02.299Z,8.00
2022-09-09T04:42:01.853Z,12.00
2022-09-09T04:43:01.737Z,8.00
2022-09-09T04:44:02.138Z,12.00
2022-09-09T04:45:01.939Z,12.00
2022-09-09T04:46:01.738Z,12.00
2022-09-09T04:47:02.865Z,12.00
2022-09-09T04:48:02.628Z,16.00
2022-09-09T04:49:02.498Z,16.00
2022-09-09T04:50:02.963Z,16.00
2022-09-09T04:51:02.668Z,20.00
2022-09-09T04:52:02.995Z,20.00
2022-09-09T04:53:02.803Z,20.00
2022-09-09T04:54:03.280Z,24.00
2022-09-09T04:55:02.824Z,24.00
2022-09-09T04:56:03.317Z,32.00
2022-09-09T04:57:02.610Z,32.00
2022-09-09T04:58:02.392Z,36.00
2022-09-09T04:59:02.029Z,44.00
2022-09-09T05:00:02.424Z,52.00
2022-09-09T05:01:02.754Z,60.00
2022-09-09T05:02:03.063Z,76.00
2022-09-09T05:03:02.711Z,92.00
2022-09-09T05:04:02.522Z,120.00
2022-09-09T05:05:03.026Z,148.00
2022-09-09T05:06:02.607Z,176.00
2022-09-09T05:07:03.156Z,208.00
2022-09-09T05:08:02.553Z,232.00
2022-09-09T05:09:02.884Z,256.00
2022-09-09T05:10:02.765Z,296.00
2022-09-09T05:11:02.683Z,340.00
2022-09-09T05:12:02.699Z,368.00
2022-09-09T05:13:03.187Z,412.00
2022-09-09T05:14:03.116Z,440.00
2022-09-09T05:15:02.909Z,480.00
2022-09-09T05:16:03.192Z,520.00
2022-09-09T05:17:02.396Z,560.00
2022-09-09T05:18:02.038Z,596.00
2022-09-09T05:19:02.054Z,632.00
2022-09-09T05:20:02.007Z,652.00
2022-09-09T05:21:01.936Z,664.00
2022-09-09T05:22:02.348Z,708.00
2022-09-09T05:23:02.939Z,772.00
2022-09-09T05:24:02.455Z,824.00
2022-09-09T05:25:02.403Z,872.00
2022-09-09T05:26:02.981Z,864.00
2022-09-09T05:27:01.833Z,860.00
2022-09-09T05:28:02.282Z,900.00
2022-09-09T05:29:01.839Z,972.00
2022-09-09T05:30:01.938Z,1028.00
2022-09-09T05:31:02.131Z,1080.00
2022-09-09T05:32:02.499Z,1104.00
2022-09-09T05:33:02.688Z,1076.00
2022-09-09T05:34:02.757Z,1044.00
2022-09-09T05:35:02.726Z,932.00
2022-09-09T05:36:02.810Z,824.00
2022-09-09T05:37:02.051Z,736.00
2022-09-09T05:38:02.553Z,664.00
2022-09-09T05:39:02.210Z,656.00
2022-09-09T05:40:02.412Z,684.00
2022-09-09T05:41:02.325Z,704.00
2022-09-09T05:42:02.520Z,736.00
2022-09-09T05:43:02.425Z,836.00
2022-09-09T05:44:02.655Z,984.00
2022-09-09T05:45:02.141Z,1084.00
2022-09-09T05:46:02.767Z,1160.00
2022-09-09T05:47:02.782Z,1228.00
2022-09-09T05:48:02.856Z,1276.00
2022-09-09T05:49:02.420Z,1280.00
2022-09-09T05:50:02.363Z,1224.00
2022-09-09T05:51:02.983Z,1152.00
2022-09-09T05:52:02.719Z,1080.00
2022-09-09T05:53:02.627Z,1084.00
2022-09-09T05:54:03.240Z,1096.00
2022-09-09T05:55:02.915Z,1088.00
2022-09-09T05:56:02.846Z,1080.00
2022-09-09T05:57:02.775Z,1064.00
2022-09-09T05:58:02.673Z,1124.00
2022-09-09T05:59:03.041Z,1236.00
2022-09-09T06:00:02.760Z,1416.00
2022-09-09T06:01:02.798Z,1600.00
2022-09-09T06:02:02.153Z,1728.00
2022-09-09T06:03:02.346Z,1880.00
2022-09-09T06:04:02.110Z,1940.00
2022-09-09T06:05:02.278Z,1904.00
2022-09-09T06:06:02.217Z,1796.00
2022-09-09T06:07:02.081Z,1644.00
2022-09-09T06:08:02.012Z,1500.00
2022-09-09T06:09:02.029Z,1428.00
2022-09-09T06:10:01.973Z,1468.00
2022-09-09T06:11:02.470Z,1560.00
2022-09-09T06:12:02.490Z,1636.00
2022-09-09T06:13:02.535Z,1704.00
2022-09-09T06:14:02.809Z,1732.00
2022-09-09T06:15:02.475Z,1756.00
2022-09-09T06:16:02.416Z,1856.00
2022-09-09T06:17:02.132Z,2000.00
2022-09-09T06:18:01.889Z,2216.00
2022-09-09T06:19:02.496Z,2464.00
2022-09-09T06:20:02.499Z,2708.00
2022-09-09T06:21:02.116Z,2968.00
2022-09-09T06:22:01.893Z,3168.00
2022-09-09T06:23:01.795Z,3396.00
2022-09-09T06:24:01.709Z,3660.00
2022-09-09T06:25:01.687Z,3928.00
2022-09-09T06:26:01.624Z,4136.00
2022-09-09T06:27:02.366Z,4308.00
2022-09-09T06:28:02.381Z,4520.00
2022-09-09T06:29:02.392Z,5052.00
2022-09-09T06:30:02.115Z,11504.00
2022-09-09T06:31:02.153Z,11304.00
2022-09-09T06:32:02.879Z,8528.00
2022-09-09T06:33:03.161Z,10056.00
2022-09-09T06:34:02.906Z,7540.00
2022-09-09T06:35:02.762Z,12260.00
2022-09-09T06:36:02.811Z,12296.00
2022-09-09T06:37:02.626Z,12520.00
2022-09-09T06:38:02.592Z,12960.00
2022-09-09T06:39:02.366Z,13376.00
2022-09-09T06:40:02.530Z,13536.00
2022-09-09T06:41:02.403Z,13216.00
2022-09-09T06:42:02.829Z,13216.00
2022-09-09T06:43:02.468Z,13152.00
2022-09-09T06:44:02.597Z,13120.00
2022-09-09T06:45:02.965Z,12656.00
2022-09-09T06:46:02.990Z,12184.00
2022-09-09T06:47:03.051Z,12024.00
2022-09-09T06:48:03.255Z,12076.00
2022-09-09T06:49:03.056Z,11492.00
2022-09-09T06:50:03.092Z,9428.00
2022-09-09T06:51:03.139Z,10264.00
2022-09-09T06:52:02.248Z,11852.00
2022-09-09T06:53:01.939Z,12400.00
2022-09-09T06:54:02.116Z,12492.00
2022-09-09T06:55:02.107Z,13920.00
2022-09-09T06:56:02.174Z,14560.00
2022-09-09T06:57:20.781Z,14848.00
2022-09-09T06:58:02.801Z,15232.00
2022-09-09T06:59:02.838Z,15712.00
2022-09-09T07:00:02.666Z,16736.00
2022-09-09T07:01:02.569Z,16640.00
2022-09-09T07:02:02.441Z,16704.00
2022-09-09T07:03:02.331Z,16992.00
2022-09-09T07:04:02.405Z,17184.00
2022-09-09T07:05:02.464Z,17152.00
2022-09-09T07:06:02.361Z,17152.00
2022-09-09T07:07:02.045Z,17152.00
2022-09-09T07:08:02.082Z,16928.00
2022-09-09T07:09:01.575Z,16768.00
2022-09-09T07:10:01.593Z,16704.00
2022-09-09T07:11:02.143Z,16128.00
2022-09-09T07:12:02.488Z,16064.00
2022-09-09T07:13:02.151Z,15968.00
2022-09-09T07:14:02.342Z,16064.00
2022-09-09T07:15:02.255Z,16416.00
2022-09-09T07:16:02.606Z,16736.00
2022-09-09T07:17:02.823Z,16864.00
2022-09-09T07:18:02.760Z,17152.00
2022-09-09T07:19:02.707Z,17632.00
2022-09-09T07:20:02.900Z,18176.00
2022-09-09T07:21:02.806Z,18272.00
2022-09-09T07:22:02.503Z,18816.00
2022-09-09T07:23:01.955Z,19520.00
2022-09-09T07:24:02.027Z,19744.00
2022-09-09T07:25:01.905Z,20160.00
2022-09-09T07:26:02.503Z,20576.00
2022-09-09T07:27:02.549Z,21056.00
2022-09-09T07:28:02.424Z,21280.00
2022-09-09T07:29:02.353Z,21696.00
2022-09-09T07:30:02.539Z,22144.00
2022-09-09T07:31:02.733Z,22656.00
2022-09-09T07:32:02.076Z,22816.00
2022-09-09T07:33:02.283Z,18688.00
2022-09-09T07:34:02.322Z,23232.00
2022-09-09T07:35:02.121Z,23808.00
2022-09-09T07:36:02.421Z,23488.00
2022-09-09T07:37:03.152Z,10036.00
2022-09-09T07:38:02.959Z,23328.00
2022-09-09T07:39:02.938Z,23648.00
2022-09-09T07:40:03.082Z,7216.00
2022-09-09T07:41:03.002Z,23904.00
2022-09-09T07:42:02.770Z,7736.00
2022-09-09T07:43:02.261Z,15360.00
2022-09-09T07:44:02.593Z,13920.00
2022-09-09T07:45:02.548Z,21568.00
2022-09-09T07:46:02.181Z,17024.00
2022-09-09T07:47:03.115Z,10216.00
2022-09-09T07:48:02.659Z,11148.00
2022-09-09T07:49:02.919Z,9908.00
2022-09-09T07:50:02.812Z,7788.00
2022-09-09T07:51:02.740Z,8152.00
2022-09-09T07:52:01.935Z,9140.00
2022-09-09T07:53:02.504Z,8268.00
2022-09-09T07:54:01.861Z,6792.00
2022-09-09T07:55:02.303Z,6076.00
2022-09-09T07:56:04.071Z,5640.00
2022-09-09T07:57:02.084Z,5988.00
2022-09-09T07:58:02.663Z,5600.00
2022-09-09T07:59:02.402Z,5072.00
2022-09-09T08:00:02.698Z,4212.00
2022-09-09T08:01:02.188Z,3928.00
2022-09-09T08:02:01.864Z,4864.00
2022-09-09T08:03:02.114Z,6136.00
2022-09-09T08:04:01.874Z,6540.00
2022-09-09T08:05:02.041Z,6312.00
2022-09-09T08:06:02.054Z,5504.00
2022-09-09T08:07:02.056Z,5320.00
2022-09-09T08:08:02.089Z,4980.00
2022-09-09T08:09:02.449Z,4308.00
2022-09-09T08:10:02.649Z,4052.00
2022-09-09T08:11:02.354Z,5028.00
2022-09-09T08:12:02.383Z,6572.00
2022-09-09T08:13:17.313Z,6860.00
2022-09-09T08:14:02.681Z,6316.00
2022-09-09T08:15:02.563Z,6004.00
2022-09-09T08:16:02.392Z,6368.00
2022-09-09T08:17:01.923Z,7540.00
2022-09-09T08:18:01.948Z,8076.00
2022-09-09T08:19:01.838Z,8952.00
2022-09-09T08:20:02.051Z,9080.00
2022-09-09T08:21:02.363Z,9068.00
2022-09-09T08:22:02.269Z,9728.00
2022-09-09T08:23:02.706Z,9060.00
2022-09-09T08:24:02.605Z,7948.00
2022-09-09T08:25:02.608Z,7564.00
2022-09-09T08:26:02.758Z,6240.00
2022-09-09T08:27:01.887Z,5796.00
2022-09-09T08:28:01.791Z,5236.00
2022-09-09T08:29:01.791Z,5716.00
2022-09-09T08:30:02.342Z,9272.00
2022-09-09T08:31:01.872Z,20512.00
2022-09-09T08:32:02.899Z,23744.00
2022-09-09T08:33:02.329Z,11132.00
2022-09-09T08:34:02.291Z,9932.00
2022-09-09T08:35:02.392Z,10636.00
2022-09-09T08:36:02.849Z,18464.00
2022-09-09T08:37:01.854Z,26912.00
2022-09-09T08:38:02.219Z,12728.00
2022-09-09T08:39:01.884Z,12656.00
2022-09-09T08:40:02.233Z,14584.00
2022-09-09T08:41:02.106Z,14752.00
2022-09-09T08:42:02.221Z,13068.00
2022-09-09T08:43:02.221Z,15552.00
2022-09-09T08:44:02.387Z,27200.00
2022-09-09T08:45:02.521Z,13232.00
2022-09-09T08:46:02.352Z,10056.00
2022-09-09T08:47:02.413Z,10080.00
2022-09-09T08:48:02.378Z,9788.00
2022-09-09T08:49:02.795Z,10184.00
2022-09-09T08:50:02.462Z,8932.00
2022-09-09T08:51:02.471Z,10904.00
2022-09-09T08:52:02.495Z,18688.00
2022-09-09T08:53:02.817Z,10644.00
2022-09-09T08:54:02.610Z,10748.00
2022-09-09T08:55:02.484Z,9124.00
2022-09-09T08:56:02.554Z,9480.00
2022-09-09T08:57:02.690Z,9276.00
2022-09-09T08:58:02.581Z,26752.00
2022-09-09T08:59:02.629Z,12680.00
2022-09-09T09:00:02.540Z,15092.00
2022-09-09T09:01:02.535Z,23456.00
2022-09-09T09:02:02.911Z,12688.00
2022-09-09T09:03:03.248Z,13920.00
2022-09-09T09:04:02.670Z,15168.00
2022-09-09T09:05:03.068Z,14120.00
2022-09-09T09:06:02.646Z,13004.00
2022-09-09T09:07:03.356Z,12536.00
2022-09-09T09:08:03.596Z,11612.00
2022-09-09T09:09:03.131Z,11612.00
2022-09-09T09:10:03.158Z,11584.00
2022-09-09T09:11:03.590Z,11212.00
2022-09-09T09:12:02.676Z,10788.00
2022-09-09T09:13:02.538Z,10232.00
2022-09-09T09:14:02.367Z,10352.00
2022-09-09T09:15:02.544Z,10516.00
2022-09-09T09:16:02.742Z,11224.00
2022-09-09T09:17:03.137Z,12148.00
2022-09-09T09:18:03.058Z,17120.00
2022-09-09T09:19:03.413Z,14092.00
2022-09-09T09:20:02.906Z,13544.00
2022-09-09T09:21:03.514Z,13408.00
2022-09-09T09:22:03.512Z,13680.00
2022-09-09T09:23:03.271Z,13128.00
2022-09-09T09:24:03.353Z,12100.00
2022-09-09T09:25:03.257Z,11768.00
2022-09-09T09:26:03.317Z,11940.00
2022-09-09T09:27:02.970Z,11904.00
2022-09-09T09:28:02.769Z,12584.00
2022-09-09T09:29:02.808Z,31840.00
2022-09-09T09:30:23.821Z,32576.00
2022-09-09T09:31:02.891Z,32192.00
2022-09-09T09:32:03.574Z,32032.00
2022-09-09T09:33:03.664Z,31520.00
2022-09-09T09:34:03.847Z,30208.00
2022-09-09T09:35:03.595Z,17568.00
2022-09-09T09:36:03.462Z,17472.00
2022-09-09T09:37:03.356Z,18368.00
2022-09-09T09:40:03.248Z,15904.00
2022-09-09T09:41:02.985Z,14912.00
2022-09-09T09:42:06.472Z,21984.00
2022-09-09T09:43:03.295Z,18080.00
2022-09-09T09:44:03.466Z,16992.00
2022-09-09T09:45:03.356Z,16384.00
2022-09-09T09:46:18.842Z,15776.00
2022-09-09T09:47:03.702Z,15360.00
2022-09-09T09:48:07.354Z,16672.00
2022-09-09T09:49:03.358Z,16384.00
2022-09-09T09:50:03.423Z,16544.00
2022-09-09T09:51:03.835Z,15456.00
2022-09-09T09:52:03.857Z,14472.00
2022-09-09T09:53:03.930Z,13180.00
2022-09-09T09:54:03.453Z,11540.00
2022-09-09T09:55:07.568Z,13264.00
2022-09-09T09:56:03.795Z,11204.00
2022-09-09T09:57:03.547Z,12896.00
2022-09-09T09:59:09.323Z,13304.00
2022-09-09T10:00:03.371Z,11456.00
2022-09-09T10:01:03.541Z,9636.00
2022-09-09T10:02:02.656Z,8912.00
2022-09-09T10:03:02.581Z,8932.00
2022-09-09T10:04:02.615Z,9280.00
2022-09-09T10:05:02.601Z,9676.00
2022-09-09T10:06:02.496Z,10472.00
2022-09-09T10:07:03.223Z,11068.00
2022-09-09T10:08:03.259Z,11636.00
2022-09-09T10:09:02.899Z,12300.00
2022-09-09T10:10:02.790Z,12428.00
2022-09-09T10:11:02.725Z,12596.00
2022-09-09T10:12:03.459Z,12492.00
2022-09-09T10:13:03.578Z,12284.00
2022-09-09T10:14:03.184Z,12156.00
2022-09-09T10:15:03.356Z,11864.00
2022-09-09T10:16:05.339Z,11540.00
2022-09-09T10:17:02.998Z,11260.00
2022-09-09T10:18:02.926Z,10536.00
2022-09-09T10:19:02.467Z,11272.00
2022-09-09T10:20:02.871Z,11784.00
2022-09-09T10:21:02.934Z,13056.00
2022-09-09T10:22:03.626Z,13148.00
2022-09-09T10:23:03.493Z,13304.00
2022-09-09T10:24:03.635Z,12448.00
2022-09-09T10:25:03.519Z,11544.00
2022-09-09T10:26:03.467Z,12164.00
2022-09-09T10:27:03.269Z,13488.00
2022-09-09T10:28:06.174Z,14420.00
2022-09-09T10:29:03.028Z,16096.00
2022-09-09T10:30:02.663Z,14152.00
2022-09-09T10:31:02.700Z,11644.00
2022-09-09T10:32:03.817Z,16832.00
2022-09-09T10:33:03.656Z,12480.00
2022-09-09T10:34:03.583Z,12508.00
2022-09-09T10:35:03.441Z,13108.00
2022-09-09T10:36:03.515Z,13304.00
2022-09-09T10:37:02.777Z,17760.00
2022-09-09T10:38:03.481Z,13484.00
2022-09-09T10:39:03.294Z,13380.00
2022-09-09T10:40:03.485Z,14312.00
2022-09-09T10:41:03.054Z,13000.00
2022-09-09T10:42:03.182Z,13516.00
2022-09-09T10:43:03.362Z,14764.00
2022-09-09T10:44:03.528Z,14620.00
2022-09-09T10:45:03.531Z,13524.00
2022-09-09T10:46:03.392Z,12356.00
2022-09-09T10:47:08.116Z,11448.00
2022-09-09T10:48:03.162Z,11344.00
2022-09-09T10:49:02.779Z,11112.00
2022-09-09T10:50:02.661Z,12472.00
2022-09-09T10:51:04.626Z,14632.00
2022-09-09T10:52:03.909Z,19008.00
2022-09-09T10:53:03.760Z,19008.00
2022-09-09T10:54:03.783Z,25088.00
2022-09-09T10:55:03.566Z,29824.00
2022-09-09T10:56:03.372Z,30720.00
2022-09-09T10:57:03.412Z,25888.00
2022-09-09T10:58:03.227Z,31040.00
2022-09-09T10:59:02.954Z,31488.00
2022-09-09T11:00:03.004Z,17376.00
2022-09-09T11:01:03.272Z,12320.00
2022-09-09T11:02:03.122Z,25952.00
2022-09-09T11:03:01.993Z,27456.00
2022-09-09T11:04:01.976Z,28160.00
2022-09-09T11:05:01.950Z,15776.00
2022-09-09T11:06:02.066Z,23008.00
2022-09-09T11:07:02.101Z,15872.00
2022-09-09T11:08:02.983Z,13368.00
2022-09-09T11:09:02.731Z,30432.00
2022-09-09T11:10:02.688Z,13420.00
2022-09-09T11:11:03.076Z,11644.00
2022-09-09T11:12:02.506Z,12612.00
2022-09-09T11:13:03.018Z,29920.00
2022-09-09T11:14:02.983Z,14848.00
2022-09-09T11:15:03.004Z,15200.00
2022-09-09T11:16:02.878Z,13296.00
2022-09-09T11:17:03.329Z,12352.00
2022-09-09T11:18:02.407Z,12308.00
2022-09-09T11:19:02.219Z,19648.00
2022-09-09T11:20:02.056Z,31840.00
2022-09-09T11:21:02.109Z,13940.00
2022-09-09T11:22:02.262Z,13680.00
2022-09-09T11:23:02.890Z,18144.00
2022-09-09T11:24:02.979Z,10852.00
2022-09-09T11:25:02.881Z,10888.00
2022-09-09T11:26:02.960Z,19296.00
2022-09-09T11:27:03.232Z,9420.00
2022-09-09T11:28:02.696Z,28224.00
2022-09-09T11:29:04.872Z,14500.00
2022-09-09T11:30:02.417Z,14584.00
2022-09-09T11:31:02.537Z,20832.00
2022-09-09T11:32:02.419Z,27040.00
2022-09-09T11:33:03.183Z,12128.00
2022-09-09T11:34:03.133Z,11588.00
2022-09-09T11:35:02.706Z,27648.00
2022-09-09T11:36:05.797Z,28128.00
2022-09-09T11:37:02.993Z,29120.00
2022-09-09T11:38:02.403Z,23264.00
2022-09-09T11:39:02.547Z,21472.00
2022-09-09T11:40:02.693Z,8868.00
2022-09-09T11:41:02.812Z,10908.00
2022-09-09T11:42:02.514Z,19520.00
2022-09-09T11:43:03.164Z,12540.00
2022-09-09T11:44:02.952Z,11660.00
2022-09-09T11:45:03.058Z,12136.00
2022-09-09T11:46:02.994Z,13200.00
2022-09-09T11:47:03.233Z,23520.00
2022-09-09T11:48:03.026Z,25696.00
2022-09-09T11:49:02.878Z,20736.00
2022-09-09T11:50:02.904Z,22336.00
2022-09-09T11:51:02.611Z,8956.00
2022-09-09T11:52:02.879Z,18976.00
2022-09-09T11:53:03.592Z,15840.00
2022-09-09T11:54:03.343Z,22176.00
2022-09-09T11:55:03.095Z,15904.00
2022-09-09T11:56:03.641Z,22080.00
2022-09-09T11:57:03.341Z,18080.00
2022-09-09T11:58:02.929Z,16832.00
2022-09-09T11:59:02.920Z,18656.00
2022-09-09T12:00:03.036Z,17568.00
2022-09-09T12:01:02.847Z,19168.00
2022-09-09T12:02:02.879Z,18816.00
2022-09-09T12:03:02.023Z,14944.00
2022-09-09T12:04:02.293Z,20480.00
2022-09-09T12:05:02.449Z,12492.00
2022-09-09T12:06:02.640Z,12736.00
2022-09-09T12:07:02.204Z,12208.00
2022-09-09T12:08:02.340Z,12740.00
2022-09-09T12:09:02.313Z,13148.00
2022-09-09T12:10:02.337Z,13576.00
2022-09-09T12:11:02.562Z,13912.00
2022-09-09T12:12:02.289Z,13032.00
2022-09-09T12:13:02.882Z,12844.00
2022-09-09T12:14:02.540Z,12536.00
2022-09-09T12:15:02.486Z,11960.00
2022-09-09T12:16:02.330Z,12028.00
2022-09-09T12:17:02.719Z,13064.00
2022-09-09T12:18:03.837Z,14560.00
2022-09-09T12:19:03.275Z,15488.00
2022-09-09T12:20:02.781Z,15904.00
2022-09-09T12:21:03.174Z,16768.00
2022-09-09T12:22:03.301Z,17728.00
2022-09-09T12:23:02.963Z,18688.00
2022-09-09T12:24:02.573Z,17152.00
2022-09-09T12:25:02.896Z,16384.00
2022-09-09T12:26:02.477Z,14976.00
2022-09-09T12:27:02.363Z,14460.00